Time;durP1;ratioP1;P1;durP2;ratioP2;P2;SDS_P1;SDS_P2;PMS_P1;PMS_P2;Temp;Humidity;BMP_temperature;BMP_pressure;BME280_temperature;BME280_humidity;BME280_pressure;Samples;Min_cycle;Max_cycle;Signal;HPM_P1;HPM_P2
2022/10/22 00:02:04;;;;;;;21.67;19.35;;;;;;;10.38;100.00;99305.13;4994134;28;20378;-81
2022/10/22 00:04:30;;;;;;;23.13;19.23;;;;;;;10.36;100.00;99312.16;4994280;28;20022;-80
2022/10/22 00:06:55;;;;;;;20.60;18.42;;;;;;;10.33;100.00;99320.13;4994386;28;20029;-80
2022/10/22 00:09:21;;;;;;;20.70;17.70;;;;;;;10.16;100.00;99301.91;4994476;28;20560;-80
2022/10/22 00:11:46;;;;;;;23.85;19.98;;;;;;;10.19;100.00;99309.53;4994424;28;20032;-80
2022/10/22 00:14:11;;;;;;;21.23;17.70;;;;;;;10.17;100.00;99304.41;4993955;28;20124;-80
2022/10/22 00:16:37;;;;;;;23.88;19.67;;;;;;;10.21;100.00;99305.94;4992683;28;20058;-80
2022/10/22 00:19:02;;;;;;;23.75;19.13;;;;;;;10.25;100.00;99311.88;4993752;28;20105;-80
2022/10/22 00:21:29;;;;;;;21.95;18.95;;;;;;;10.19;100.00;99294.75;4994279;28;20022;-80
2022/10/22 00:23:55;;;;;;;28.30;21.90;;;;;;;10.26;100.00;99304.91;4992655;28;20029;-81
2022/10/22 00:26:21;;;;;;;25.20;19.20;;;;;;;10.30;100.00;99307.28;4993791;28;20042;-80
2022/10/22 00:28:47;;;;;;;21.27;19.00;;;;;;;10.30;100.00;99296.84;4993951;28;20470;-80
2022/10/22 00:31:14;;;;;;;22.75;19.42;;;;;;;10.29;100.00;99295.19;4993632;28;20027;-81
2022/10/22 00:33:40;;;;;;;27.10;19.75;;;;;;;10.38;100.00;99299.06;4993926;28;20053;-81
2022/10/22 00:36:06;;;;;;;23.15;18.95;;;;;;;10.34;100.00;99281.94;4993618;28;20019;-80
2022/10/22 00:38:31;;;;;;;23.95;21.08;;;;;;;10.40;100.00;99286.81;4994166;28;20030;-80
2022/10/22 00:40:57;;;;;;;24.35;19.02;;;;;;;10.36;100.00;99277.47;4993610;28;20018;-80
2022/10/22 00:43:22;;;;;;;25.08;19.65;;;;;;;10.30;100.00;99259.56;4993584;28;20026;-82
2022/10/22 00:45:48;;;;;;;23.48;19.23;;;;;;;10.40;100.00;99276.38;4993614;28;20050;-82
2022/10/22 00:48:19;;;;;;;20.80;18.25;;;;;;;10.38;100.00;99268.66;4993123;28;20027;-81
2022/10/22 00:50:44;;;;;;;21.30;18.58;;;;;;;10.46;100.00;99278.69;4993801;28;20538;-81
2022/10/22 00:53:20;;;;;;;22.73;18.83;;;;;;;10.39;100.00;99262.53;4993467;28;20101;-81
2022/10/22 00:55:50;;;;;;;21.83;18.50;;;;;;;10.36;100.00;99254.88;4993268;28;20374;-81
2022/10/22 00:58:16;;;;;;;22.63;17.90;;;;;;;10.34;100.00;99251.53;4993193;28;20038;-81
2022/10/22 01:00:42;;;;;;;25.08;18.75;;;;;;;10.42;100.00;99259.78;4993323;28;20030;-81
2022/10/22 01:03:07;;;;;;;22.95;18.73;;;;;;;10.41;100.00;99239.88;4993199;28;20026;-81
2022/10/22 01:05:41;;;;;;;23.27;17.48;;;;;;;10.36;100.00;99226.25;4993671;28;20026;-81
2022/10/22 01:08:11;;;;;;;21.95;18.10;;;;;;;10.39;100.00;99233.06;4993068;28;20053;-81
2022/10/22 01:11:12;;;;;;;23.30;17.98;;;;;;;10.45;100.00;99248.38;4993147;28;20389;-81
2022/10/22 01:13:49;;;;;;;22.98;17.35;;;;;;;10.42;100.00;99249.38;4952060;29;20090;-81
2022/10/22 01:16:25;;;;;;;24.52;17.75;;;;;;;10.38;100.00;99234.00;4951716;29;20035;-81
2022/10/22 01:19:03;;;;;;;20.88;18.52;;;;;;;10.38;100.00;99236.59;4952020;29;20038;-81
2022/10/22 01:21:35;;;;;;;21.60;17.63;;;;;;;10.37;100.00;99237.53;4951965;29;20027;-81
2022/10/22 01:24:26;;;;;;;21.55;18.00;;;;;;;10.42;100.00;99270.19;4951624;29;20169;-81
2022/10/22 01:26:52;;;;;;;19.17;17.00;;;;;;;10.42;100.00;99288.41;4951886;29;20038;-81
2022/10/22 01:29:25;;;;;;;22.27;17.95;;;;;;;10.40;100.00;99287.63;4951583;29;20075;-81
2022/10/22 01:32:15;;;;;;;20.63;18.42;;;;;;;10.41;100.00;99284.16;4951727;29;20043;-81
2022/10/22 01:34:45;;;;;;;26.17;18.83;;;;;;;10.33;100.00;99262.88;4894727;29;20036;-81
2022/10/22 01:37:14;;;;;;;21.97;17.97;;;;;;;10.37;100.00;99271.38;4894129;29;20048;-81
2022/10/22 01:39:43;;;;;;;23.63;19.35;;;;;;;10.39;100.00;99272.94;4894465;29;20268;-81
2022/10/22 01:42:11;;;;;;;21.40;18.85;;;;;;;10.43;100.00;99289.25;4894515;29;20064;-81
2022/10/22 01:44:36;;;;;;;21.63;17.80;;;;;;;10.42;100.00;99296.22;4894629;29;20131;-81
2022/10/22 01:47:17;;;;;;;20.67;17.27;;;;;;;10.46;100.00;99263.06;4894487;29;20198;-81
2022/10/22 01:49:58;;;;;;;21.00;16.95;;;;;;;10.37;100.00;99234.91;4908382;29;20044;-81
2022/10/22 01:52:44;;;;;;;21.08;17.73;;;;;;;10.36;100.00;99254.03;4932571;29;20511;-81
2022/10/22 01:55:57;;;;;;;24.92;18.08;;;;;;;10.28;100.00;99233.63;4932031;29;20123;-81
2022/10/22 01:58:38;;;;;;;22.88;18.42;;;;;;;10.21;100.00;99246.09;4894250;29;20037;-81
2022/10/22 02:01:25;;;;;;;21.40;19.05;;;;;;;10.12;100.00;99254.38;4894175;29;20025;-81
2022/10/22 02:04:14;;;;;;;25.35;19.33;;;;;;;10.05;100.00;99255.59;4875795;29;20528;-81
2022/10/22 02:06:43;;;;;;;22.00;19.02;;;;;;;9.93;100.00;99238.84;4876119;29;20359;-81
2022/10/22 02:09:09;;;;;;;21.95;18.20;;;;;;;9.89;100.00;99220.84;4875813;29;20124;-81
2022/10/22 02:11:35;;;;;;;26.60;18.77;;;;;;;9.85;100.00;99209.75;4901875;29;20035;-81
2022/10/22 02:14:03;;;;;;;21.83;19.52;;;;;;;9.88;100.00;99221.78;4932055;29;20035;-81
2022/10/22 02:16:40;;;;;;;23.25;18.95;;;;;;;9.84;100.00;99222.84;4916270;29;20129;-81
2022/10/22 02:19:14;;;;;;;25.10;19.10;;;;;;;9.72;100.00;99213.91;4916135;29;20078;-81
2022/10/22 02:21:40;;;;;;;23.65;18.02;;;;;;;9.67;100.00;99208.09;4916151;29;20031;-81
2022/10/22 02:24:06;;;;;;;29.10;23.50;;;;;;;9.61;100.00;99204.06;4931880;29;20063;-81
2022/10/22 02:26:37;;;;;;;27.13;22.42;;;;;;;9.51;100.00;99210.59;4932128;29;20044;-81
2022/10/22 02:29:06;;;;;;;;;;;;;;;9.50;100.00;99227.13;4932367;29;20443;-81
2022/10/22 02:31:35;;;;;;;22.75;18.88;;;;;;;9.35;100.00;99231.31;4932395;29;20338;-81
2022/10/22 02:34:07;;;;;;;23.27;18.58;;;;;;;9.24;100.00;99228.41;4950385;28;20034;-81
2022/10/22 02:36:34;;;;;;;22.33;18.67;;;;;;;9.24;100.00;99247.41;4992067;28;20045;-81
2022/10/22 02:39:00;;;;;;;23.05;17.70;;;;;;;9.23;100.00;99242.31;4992374;28;20026;-81
2022/10/22 02:41:25;;;;;;;24.38;19.50;;;;;;;9.17;100.00;99239.97;4992366;28;20049;-81
2022/10/22 02:43:54;;;;;;;26.70;19.35;;;;;;;9.15;100.00;99250.47;4992319;28;20505;-81
2022/10/22 02:46:19;;;;;;;28.60;19.67;;;;;;;9.13;100.00;99264.44;4991871;28;20033;-81
2022/10/22 02:48:45;;;;;;;23.42;18.98;;;;;;;8.99;100.00;99249.50;4992457;28;20097;-81
2022/10/22 02:51:10;;;;;;;24.55;20.10;;;;;;;9.01;100.00;99258.03;4995411;28;20522;-80
2022/10/22 02:53:35;;;;;;;27.27;20.85;;;;;;;8.99;100.00;99268.50;4995694;28;20026;-80
2022/10/22 02:56:01;;;;;;;28.40;21.40;;;;;;;8.97;100.00;99253.91;4995813;28;20057;-80
2022/10/22 02:58:26;;;;;;;25.27;20.63;;;;;;;9.02;100.00;99245.88;4995473;28;20030;-80
2022/10/22 03:00:52;;;;;;;23.23;19.30;;;;;;;9.07;100.00;99252.56;4995599;28;20050;-81
2022/10/22 03:03:17;;;;;;;22.67;18.70;;;;;;;9.05;100.00;99244.00;4995324;28;20053;-81
2022/10/22 03:05:42;;;;;;;22.95;19.27;;;;;;;9.02;100.00;99238.97;4995533;28;20022;-81
2022/10/22 03:08:08;;;;;;;22.95;19.38;;;;;;;8.98;100.00;99238.25;4995552;28;20057;-81
2022/10/22 03:10:33;;;;;;;20.88;18.15;;;;;;;9.06;100.00;99244.84;4995680;28;20424;-80
2022/10/22 03:12:59;;;;;;;20.70;17.98;;;;;;;9.07;100.00;99236.16;4995484;28;20077;-80
2022/10/22 03:15:24;;;;;;;22.00;18.50;;;;;;;9.14;100.00;99232.31;4995084;28;20026;-80
2022/10/22 03:17:50;;;;;;;22.60;18.55;;;;;;;9.11;100.00;99227.31;4995200;28;20032;-80
2022/10/22 03:20:15;;;;;;;22.30;17.90;;;;;;;9.22;100.00;99241.44;4995250;28;20343;-80
2022/10/22 03:22:41;;;;;;;21.48;18.30;;;;;;;9.19;100.00;99239.00;4995383;28;20045;-81
2022/10/22 03:25:11;;;;;;;23.15;18.73;;;;;;;9.25;100.00;99237.88;4995394;28;20109;-81
2022/10/22 03:27:38;;;;;;;23.55;18.08;;;;;;;9.37;100.00;99245.09;4990751;28;20523;-80
2022/10/22 03:30:04;;;;;;;22.33;19.02;;;;;;;9.41;100.00;99248.38;4995159;28;20019;-81
2022/10/22 03:32:30;;;;;;;26.45;18.33;;;;;;;9.44;100.00;99251.69;4994959;28;20026;-81
2022/10/22 03:34:55;;;;;;;20.50;17.60;;;;;;;9.49;100.00;99248.84;4994735;28;20018;-81
2022/10/22 03:37:22;;;;;;;23.75;19.02;;;;;;;9.52;100.00;99240.03;4994893;28;20026;-81
2022/10/22 03:39:48;;;;;;;25.73;19.00;;;;;;;9.46;100.00;99223.84;4995008;28;20025;-81
2022/10/22 03:42:13;;;;;;;26.55;18.95;;;;;;;9.52;100.00;99234.84;4995045;28;20022;-81
2022/10/22 03:44:39;;;;;;;23.58;18.70;;;;;;;9.59;100.00;99237.06;4994917;28;20029;-81
2022/10/22 03:47:05;;;;;;;23.83;18.98;;;;;;;9.62;100.00;99244.72;4993530;28;20033;-81
2022/10/22 03:49:31;;;;;;;29.10;18.42;;;;;;;9.53;100.00;99226.16;4993269;28;20469;-81
2022/10/22 03:51:56;;;;;;;21.30;16.95;;;;;;;9.63;100.00;99249.00;4994984;28;20022;-81
2022/10/22 03:54:21;;;;;;;25.70;18.15;;;;;;;9.61;100.00;99240.47;4994773;28;20030;-81
2022/10/22 03:56:47;;;;;;;23.48;18.80;;;;;;;9.62;100.00;99238.69;4994712;28;20022;-81
2022/10/22 03:59:12;;;;;;;22.05;18.10;;;;;;;9.60;100.00;99237.91;4994246;28;20459;-81
2022/10/22 04:01:38;;;;;;;22.05;18.02;;;;;;;9.66;100.00;99242.81;4993989;28;20077;-80
2022/10/22 04:04:03;;;;;;;21.48;16.95;;;;;;;9.61;100.00;99234.41;4994544;28;20365;-80
2022/10/22 04:06:29;;;;;;;22.13;19.73;;;;;;;9.73;100.00;99255.47;4994407;28;20435;-80
2022/10/22 04:08:55;;;;;;;24.27;19.45;;;;;;;9.77;100.00;99243.13;4993233;28;20521;-80
2022/10/22 04:11:20;;;;;;;22.30;19.13;;;;;;;9.81;100.00;99251.63;4994062;28;20053;-81
2022/10/22 04:13:45;;;;;;;24.52;18.65;;;;;;;9.77;100.00;99235.31;4994392;28;20022;-80
2022/10/22 04:16:12;;;;;;;20.67;17.33;;;;;;;9.74;100.00;99227.69;4992560;28;20113;-80
2022/10/22 04:18:39;;;;;;;24.52;18.73;;;;;;;9.72;100.00;99227.75;4994218;28;20089;-81
2022/10/22 04:21:06;;;;;;;38.65;32.50;;;;;;;9.75;100.00;99243.19;4993110;28;20026;-81
2022/10/22 04:23:31;;;;;;;37.03;31.90;;;;;;;9.71;100.00;99230.44;4992431;28;20023;-80
2022/10/22 04:26:02;;;;;;;35.78;31.08;;;;;;;9.65;100.00;99218.59;4994122;28;20029;-80
2022/10/22 04:28:28;;;;;;;33.50;28.85;;;;;;;9.74;100.00;99230.28;4993676;28;20018;-80
2022/10/22 04:30:53;;;;;;;34.67;30.52;;;;;;;9.75;100.00;99238.00;4993994;28;20025;-80
2022/10/22 04:33:19;;;;;;;37.25;29.25;;;;;;;9.77;100.00;99231.88;4993551;28;20034;-81
2022/10/22 04:35:44;;;;;;;30.40;24.92;;;;;;;9.83;100.00;99239.38;4993911;28;20049;-81
2022/10/22 04:38:11;;;;;;;32.85;24.23;;;;;;;9.84;100.00;99234.09;4993700;28;20031;-81
2022/10/22 04:40:36;;;;;;;25.48;22.15;;;;;;;9.84;100.00;99235.88;4993822;28;20018;-81
2022/10/22 04:43:02;;;;;;;25.83;20.77;;;;;;;9.89;100.00;99234.69;4993848;28;20446;-80
2022/10/22 04:45:27;;;;;;;25.30;21.02;;;;;;;9.89;100.00;99239.91;4990766;28;20524;-81
2022/10/22 04:47:52;;;;;;;23.27;20.00;;;;;;;9.88;100.00;99237.41;4991128;28;20034;-80
2022/10/22 04:50:18;;;;;;;23.90;21.33;;;;;;;9.97;100.00;99257.72;4990767;28;20046;-81
2022/10/22 04:52:43;;;;;;;26.92;23.02;;;;;;;9.93;100.00;99251.84;4991136;28;20572;-80
2022/10/22 04:55:09;;;;;;;26.02;21.80;;;;;;;9.93;100.00;99264.00;4990986;28;20038;-80
2022/10/22 04:57:34;;;;;;;24.30;20.58;;;;;;;10.02;100.00;99281.75;4990880;28;20144;-80
2022/10/22 05:00:00;;;;;;;25.65;21.42;;;;;;;9.96;100.00;99264.69;4991067;28;20046;-81
2022/10/22 05:02:25;;;;;;;23.17;20.60;;;;;;;9.98;100.00;99268.06;4990960;28;20026;-81
2022/10/22 05:04:50;;;;;;;29.50;22.73;;;;;;;10.02;100.00;99270.50;4990890;28;20035;-80
2022/10/22 05:07:16;;;;;;;29.95;21.80;;;;;;;10.07;100.00;99273.72;4990957;28;20029;-80
2022/10/22 05:09:41;;;;;;;26.20;21.70;;;;;;;10.03;100.00;99264.38;4990840;28;20458;-81
2022/10/22 05:12:06;;;;;;;26.02;20.50;;;;;;;10.06;100.00;99259.88;4990272;28;20378;-80
2022/10/22 05:14:32;;;;;;;26.90;20.15;;;;;;;10.11;100.00;99270.91;4990163;28;20037;-80
2022/10/22 05:16:57;;;;;;;30.88;20.73;;;;;;;10.08;100.00;99260.66;4992128;28;20093;-81
2022/10/22 05:19:26;;;;;;;30.13;21.05;;;;;;;10.14;100.00;99273.34;4993088;28;20451;-81
2022/10/22 05:21:53;;;;;;;29.55;22.15;;;;;;;10.09;100.00;99261.47;4993137;28;20096;-80
2022/10/22 05:24:19;;;;;;;25.38;21.40;;;;;;;10.14;100.00;99270.72;4993142;28;20030;-81
2022/10/22 05:26:44;;;;;;;29.58;21.92;;;;;;;10.16;100.00;99266.31;4993084;28;20386;-80
2022/10/22 05:29:09;;;;;;;39.22;31.45;;;;;;;10.14;100.00;99262.09;4992892;28;20026;-81
2022/10/22 05:31:35;;;;;;;47.00;33.58;;;;;;;10.09;100.00;99253.69;4992742;28;20029;-80
2022/10/22 05:34:01;;;;;;;52.30;34.28;;;;;;;10.10;100.00;99265.75;4993102;28;20084;-80
2022/10/22 05:36:26;;;;;;;48.95;34.22;;;;;;;10.14;100.00;99280.31;4991261;28;20029;-80
2022/10/22 05:38:52;;;;;;;42.90;31.35;;;;;;;10.23;100.00;99298.03;4992845;28;20045;-80
2022/10/22 05:41:23;;;;;;;39.08;27.50;;;;;;;10.22;100.00;99294.59;4992584;28;20151;-80
2022/10/22 05:43:48;;;;;;;32.22;23.05;;;;;;;10.13;100.00;99289.03;4992635;28;20029;-80
2022/10/22 05:46:17;;;;;;;27.88;23.17;;;;;;;10.29;100.00;99315.16;4992391;28;20022;-80
2022/10/22 05:48:43;;;;;;;23.45;20.45;;;;;;;10.24;100.00;99316.25;4992669;28;20061;-81
2022/10/22 05:51:12;;;;;;;26.30;21.45;;;;;;;10.30;100.00;99324.66;4992851;28;20447;-81
2022/10/22 05:53:40;;;;;;;25.40;20.70;;;;;;;10.34;100.00;99332.22;4992521;28;20034;-81
2022/10/22 05:56:09;;;;;;;26.50;20.05;;;;;;;10.37;100.00;99341.66;4992589;28;20018;-80
2022/10/22 05:58:35;;;;;;;22.33;18.42;;;;;;;10.37;100.00;99345.09;4992507;28;20050;-80
2022/10/22 06:01:02;;;;;;;23.10;18.60;;;;;;;10.29;100.00;99322.97;4992410;28;20034;-82
2022/10/22 06:03:28;;;;;;;24.48;19.13;;;;;;;10.38;100.00;99338.13;4992280;28;20474;-81
2022/10/22 06:05:53;;;;;;;21.75;18.45;;;;;;;10.45;100.00;99334.31;4992656;28;20031;-81
2022/10/22 06:08:19;;;;;;;27.38;19.30;;;;;;;10.42;100.00;99337.06;4992282;28;20596;-82
2022/10/22 06:10:44;;;;;;;23.25;17.80;;;;;;;10.41;100.00;99335.38;4992734;28;20022;-82
2022/10/22 06:13:10;;;;;;;21.92;18.13;;;;;;;10.49;100.00;99341.00;4992387;28;20109;-82
2022/10/22 06:15:35;;;;;;;29.33;19.30;;;;;;;10.47;100.00;99333.28;4992083;28;20030;-82
2022/10/22 06:18:01;;;;;;;21.98;17.90;;;;;;;10.53;100.00;99341.69;4991008;28;20029;-82
2022/10/22 06:20:26;;;;;;;24.38;18.02;;;;;;;10.56;100.00;99344.16;4992278;28;20347;-81
2022/10/22 06:22:51;;;;;;;24.25;18.60;;;;;;;10.58;100.00;99326.69;4992330;28;20110;-82
2022/10/22 06:25:17;;;;;;;26.67;22.05;;;;;;;10.56;100.00;99312.91;4995102;28;20030;-82
2022/10/22 06:27:42;;;;;;;27.42;20.52;;;;;;;10.60;100.00;99314.44;4996197;28;20061;-82
2022/10/22 06:30:08;;;;;;;24.15;18.80;;;;;;;10.69;100.00;99319.97;4996147;28;20090;-82
2022/10/22 06:32:33;;;;;;;23.02;18.15;;;;;;;10.77;100.00;99316.16;4996063;28;20113;-81
2022/10/22 06:34:59;;;;;;;30.15;23.05;;;;;;;10.82;100.00;99314.13;4994663;28;20028;-82
2022/10/22 06:37:24;;;;;;;25.88;20.02;;;;;;;10.81;100.00;99308.09;4995863;28;20470;-82
2022/10/22 06:39:50;;;;;;;23.33;20.42;;;;;;;10.83;100.00;99316.69;4994640;28;20015;-82
2022/10/22 06:42:15;;;;;;;21.98;19.33;;;;;;;10.76;100.00;99304.06;4995921;28;20049;-82
2022/10/22 06:44:40;;;;;;;25.35;18.58;;;;;;;10.82;100.00;99319.34;4995684;28;20022;-82
2022/10/22 06:47:06;;;;;;;26.42;22.50;;;;;;;10.83;100.00;99321.03;4996121;28;20065;-82
2022/10/22 06:49:31;;;;;;;29.17;25.40;;;;;;;10.81;100.00;99325.47;4995690;28;20100;-82
2022/10/22 06:51:56;;;;;;;32.25;24.63;;;;;;;10.83;100.00;99326.22;4995977;28;20018;-82
2022/10/22 06:54:22;;;;;;;27.95;21.67;;;;;;;10.85;100.00;99327.00;4995532;28;20085;-81
2022/10/22 06:56:47;;;;;;;23.90;19.50;;;;;;;10.80;100.00;99322.03;4995606;28;20445;-82
2022/10/22 06:59:13;;;;;;;24.08;19.48;;;;;;;10.73;100.00;99312.84;4995537;28;20026;-82
2022/10/22 07:01:38;;;;;;;36.42;23.98;;;;;;;10.79;100.00;99319.50;4994179;28;20370;-82
2022/10/22 07:04:05;;;;;;;31.60;22.42;;;;;;;10.84;100.00;99331.38;4995711;28;20023;-81
2022/10/22 07:06:31;;;;;;;39.78;27.35;;;;;;;10.81;100.00;99328.94;4995329;28;20035;-82
2022/10/22 07:08:58;;;;;;;38.25;26.35;;;;;;;10.85;100.00;99346.06;4994044;28;20045;-82
2022/10/22 07:11:29;;;;;;;37.72;26.98;;;;;;;10.86;100.00;99350.38;4995254;28;20497;-82
2022/10/22 07:13:55;;;;;;;;;;;;;;;10.93;100.00;99356.09;4994380;28;20022;-82
2022/10/22 07:16:21;;;;;;;27.45;21.83;;;;;;;10.92;100.00;99350.06;4994971;28;19963;-82
2022/10/22 07:18:47;;;;;;;29.25;23.00;;;;;;;10.86;100.00;99339.94;4993980;28;20124;-82
2022/10/22 07:21:15;;;;;;;30.17;24.05;;;;;;;10.96;100.00;99359.41;4995337;28;20173;-82
2022/10/22 07:23:40;;;;;;;31.85;25.63;;;;;;;10.90;100.00;99330.19;4995108;28;20379;-82
2022/10/22 07:26:07;;;;;;;37.38;28.25;;;;;;;10.95;100.00;99334.22;4993575;28;20030;-82
2022/10/22 07:28:35;;;;;;;33.17;27.10;;;;;;;11.03;100.00;99346.03;4993995;28;20406;-82
2022/10/22 07:31:01;;;;;;;36.40;26.65;;;;;;;11.05;100.00;99341.59;4995160;28;20033;-82
2022/10/22 07:33:26;;;;;;;34.83;26.17;;;;;;;11.10;100.00;99348.22;4994748;28;20026;-82
2022/10/22 07:36:00;;;;;;;34.08;25.33;;;;;;;11.08;100.00;99339.66;4994071;28;20032;-82
2022/10/22 07:38:27;;;;;;;34.83;26.63;;;;;;;11.12;100.00;99335.09;4994756;28;20130;-82
2022/10/22 07:40:53;;;;;;;34.72;27.42;;;;;;;11.15;100.00;99335.78;4994783;28;20049;-82
2022/10/22 07:43:18;;;;;;;157.82;82.85;;;;;;;11.20;100.00;99338.13;4995038;28;20462;-82
2022/10/22 07:45:44;;;;;;;281.33;131.65;;;;;;;11.26;100.00;99332.59;4994671;28;20037;-82
2022/10/22 07:48:09;;;;;;;174.43;86.40;;;;;;;11.21;100.00;99327.66;4994754;28;20026;-82
2022/10/22 07:50:34;;;;;;;225.32;111.55;;;;;;;11.28;100.00;99329.91;4994362;28;20034;-82
2022/10/22 07:53:00;;;;;;;217.02;109.47;;;;;;;11.30;100.00;99339.34;4994662;28;20026;-82
2022/10/22 07:55:25;;;;;;;134.23;70.38;;;;;;;11.27;100.00;99321.25;4994211;28;20387;-82
2022/10/22 07:57:51;;;;;;;48.22;33.70;;;;;;;11.33;100.00;99339.16;4994505;28;20084;-82
2022/10/22 08:00:16;;;;;;;64.30;39.22;;;;;;;11.37;100.00;99348.50;4994566;28;20042;-82
2022/10/22 08:02:42;;;;;;;45.63;28.60;;;;;;;11.31;100.00;99327.97;4994640;28;20515;-82
2022/10/22 08:05:07;;;;;;;49.97;32.70;;;;;;;11.37;100.00;99330.22;4994465;28;20022;-82
2022/10/22 08:07:33;;;;;;;52.63;30.40;;;;;;;11.44;100.00;99341.19;4994065;28;20089;-82
2022/10/22 08:09:58;;;;;;;40.10;26.20;;;;;;;11.47;100.00;99349.69;4994349;28;20034;-82
2022/10/22 08:12:23;;;;;;;34.78;24.70;;;;;;;11.51;100.00;99352.97;4993991;28;20077;-82
2022/10/22 08:14:49;;;;;;;64.55;37.70;;;;;;;11.48;100.00;99338.31;4994381;28;20026;-82
2022/10/22 08:17:15;;;;;;;51.83;30.85;;;;;;;11.67;100.00;99368.59;4993782;28;20386;-82
2022/10/22 08:19:40;;;;;;;33.22;22.73;;;;;;;11.66;100.00;99362.53;4994172;28;20105;-82
2022/10/22 08:22:05;;;;;;;31.33;20.48;;;;;;;11.74;100.00;99368.16;4994058;28;20537;-81
2022/10/22 08:24:31;;;;;;;31.83;21.50;;;;;;;11.71;100.00;99344.88;4993680;28;20115;-82
2022/10/22 08:26:56;;;;;;;30.45;22.15;;;;;;;11.74;100.00;99344.69;4994118;28;20030;-82
2022/10/22 08:29:22;;;;;;;27.50;21.52;;;;;;;11.78;100.00;99360.19;4994051;28;20465;-82
2022/10/22 08:31:49;;;;;;;29.27;20.60;;;;;;;11.82;100.00;99364.31;4993634;28;20018;-82
2022/10/22 08:34:15;;;;;;;28.85;19.10;;;;;;;11.81;100.00;99368.69;4993943;28;20076;-82
2022/10/22 08:36:41;;;;;;;24.92;18.48;;;;;;;11.79;100.00;99370.53;4993578;28;20066;-82
2022/10/22 08:39:06;;;;;;;25.38;18.50;;;;;;;11.85;100.00;99382.44;4993688;28;20558;-82
2022/10/22 08:41:41;;;;;;;26.65;17.80;;;;;;;11.87;100.00;99394.44;4993889;28;20039;-82
2022/10/22 08:44:28;;;;;;;24.73;18.42;;;;;;;11.88;100.00;99397.91;4993434;28;20041;-83
2022/10/22 08:47:15;;;;;;;24.10;17.80;;;;;;;11.87;100.00;99410.09;4993431;28;20481;-83
2022/10/22 08:49:42;;;;;;;25.63;18.35;;;;;;;11.82;100.00;99395.63;4992877;28;20129;-83
2022/10/22 08:52:13;;;;;;;27.40;18.92;;;;;;;11.83;100.00;99398.16;4998183;28;20072;-82
2022/10/22 08:54:47;;;;;;;30.30;21.30;;;;;;;11.90;100.00;99393.44;4995632;28;20033;-83
2022/10/22 08:57:43;;;;;;;28.23;21.02;;;;;;;11.91;100.00;99401.19;4993343;28;20022;-83
2022/10/22 09:00:20;;;;;;;33.38;23.88;;;;;;;11.91;100.00;99397.75;4993109;28;20026;-83
2022/10/22 09:02:56;;;;;;;38.30;27.30;;;;;;;11.93;100.00;99391.50;4993160;28;20627;-83
2022/10/22 09:05:31;;;;;;;36.30;29.15;;;;;;;11.96;100.00;99380.03;4993218;28;20036;-84
2022/10/22 09:07:56;;;;;;;43.97;29.38;;;;;;;11.92;100.00;99375.91;4992958;28;20486;-83
2022/10/22 09:10:28;;;;;;;43.40;27.92;;;;;;;11.90;100.00;99377.78;4992983;28;20022;-83
2022/10/22 09:12:53;;;;;;;39.00;26.63;;;;;;;11.95;100.00;99380.97;4992874;28;20072;-83
2022/10/22 09:15:19;;;;;;;31.13;23.75;;;;;;;12.03;100.00;99388.38;4993070;28;20072;-82
2022/10/22 09:17:57;;;;;;;29.83;20.58;;;;;;;12.04;100.00;99390.06;4992530;28;20113;-83
2022/10/22 09:20:28;;;;;;;30.48;21.88;;;;;;;12.02;100.00;99391.94;4992608;28;20454;-83
2022/10/22 09:23:03;;;;;;;32.83;21.13;;;;;;;12.06;100.00;99399.50;4992760;28;20112;-83
2022/10/22 09:25:32;;;;;;;28.05;19.73;;;;;;;12.06;100.00;99406.50;4992800;28;20065;-83
2022/10/22 09:27:58;;;;;;;27.02;19.70;;;;;;;11.98;100.00;99399.91;4993037;28;20038;-83
2022/10/22 09:30:27;;;;;;;24.88;18.98;;;;;;;12.04;100.00;99406.56;4993019;28;20451;-82
2022/10/22 09:33:09;;;;;;;26.88;19.65;;;;;;;12.04;100.00;99424.00;4991458;28;20026;-83
2022/10/22 09:35:50;;;;;;;43.67;24.73;;;;;;;12.06;100.00;99429.97;4991821;28;20060;-84
2022/10/22 09:38:19;;;;;;;43.75;25.08;;;;;;;12.06;100.00;99430.81;4992855;28;20106;-85
2022/10/22 09:40:50;;;;;;;35.58;22.75;;;;;;;12.05;100.00;99438.72;4992514;28;20056;-85
2022/10/22 09:43:16;;;;;;;33.92;22.05;;;;;;;12.01;100.00;99424.16;4992642;28;20018;-85
2022/10/22 09:45:43;;;;;;;34.00;22.00;;;;;;;12.03;100.00;99436.19;5007264;28;20053;-85
2022/10/22 09:48:19;;;;;;;28.42;20.92;;;;;;;11.98;100.00;99425.19;4992862;28;20025;-85
2022/10/22 09:50:53;;;;;;;28.25;20.67;;;;;;;11.99;100.00;99429.47;4992037;28;20100;-85
2022/10/22 09:53:21;;;;;;;29.48;21.25;;;;;;;11.95;100.00;99420.97;4992649;28;20030;-85
2022/10/22 09:55:58;;;;;;;32.75;22.60;;;;;;;11.95;100.00;99418.34;4992271;28;20462;-86
2022/10/22 09:58:24;;;;;;;35.38;23.98;;;;;;;12.00;100.00;99425.94;4955306;28;20029;-88
2022/10/22 10:00:54;;;;;;;34.88;23.23;;;;;;;12.03;100.00;99423.16;4973363;28;20074;-88
2022/10/22 10:03:22;;;;;;;34.00;24.10;;;;;;;12.03;100.00;99424.91;4956635;28;20019;-88
2022/10/22 10:05:51;;;;;;;34.72;23.52;;;;;;;12.08;100.00;99428.09;4972840;28;20027;-89
2022/10/22 10:08:17;;;;;;;34.75;23.48;;;;;;;12.09;100.00;99429.78;4955565;28;20482;-89
2022/10/22 10:10:47;;;;;;;40.30;26.10;;;;;;;12.05;100.00;99416.09;4955310;28;20027;-88
2022/10/22 10:13:27;;;;;;;40.38;26.98;;;;;;;12.06;100.00;99419.53;4955564;28;20027;-88
2022/10/22 10:15:53;;;;;;;39.35;26.55;;;;;;;12.14;100.00;99428.63;4972849;28;20078;-89
2022/10/22 10:18:31;;;;;;;41.75;27.73;;;;;;;12.10;100.00;99428.88;4973281;28;20018;-89
2022/10/22 10:21:25;;;;;;;41.00;29.10;;;;;;;12.10;100.00;99436.72;4973053;28;20030;-88
2022/10/22 10:24:08;;;;;;;38.63;26.55;;;;;;;12.04;100.00;99419.59;4955456;28;20451;-88
2022/10/22 10:26:47;;;;;;;50.20;40.83;;;;;;;12.04;100.00;99419.59;4955614;28;20034;-88
2022/10/22 10:29:15;;;;;;;38.22;28.70;;;;;;;12.05;100.00;99421.31;4955434;28;20022;-88
2022/10/22 10:32:14;;;;;;;38.70;27.67;;;;;;;12.06;100.00;99416.94;4955151;28;20034;-88
2022/10/22 10:35:11;;;;;;;40.03;27.23;;;;;;;12.12;100.00;99424.41;4972849;28;20052;-88
2022/10/22 10:37:53;;;;;;;38.90;27.77;;;;;;;12.12;100.00;99427.84;4893938;29;20115;-89
2022/10/22 10:40:35;;;;;;;34.15;26.17;;;;;;;12.15;100.00;99421.63;4894338;29;20048;-89
2022/10/22 10:43:12;;;;;;;34.53;25.15;;;;;;;12.26;100.00;99415.78;4894455;29;20043;-89
2022/10/22 10:45:37;;;;;;;35.70;25.00;;;;;;;12.42;100.00;99411.34;4878109;29;20133;-89
2022/10/22 10:48:11;;;;;;;37.72;25.98;;;;;;;12.65;100.00;99404.81;4893999;29;20037;-89
2022/10/22 10:51:22;;;;;;;34.42;24.10;;;;;;;12.75;100.00;99400.69;4893624;29;20053;-89
2022/10/22 10:54:06;;;;;;;37.33;24.15;;;;;;;12.90;100.00;99405.03;4856593;29;20026;-88
2022/10/22 10:56:46;;;;;;;37.65;24.35;;;;;;;13.07;100.00;99411.00;4872958;29;20041;-88
2022/10/22 10:59:11;;;;;;;36.50;23.75;;;;;;;13.19;100.00;99416.34;4875336;29;20111;-87
2022/10/22 11:02:06;;;;;;;37.20;24.88;;;;;;;13.27;100.00;99423.72;4875115;29;20127;-86
2022/10/22 11:04:44;;;;;;;38.40;25.10;;;;;;;13.28;100.00;99414.97;4875330;29;20072;-86
2022/10/22 11:07:16;;;;;;;41.13;26.48;;;;;;;13.29;100.00;99406.19;4875290;29;20053;-87
2022/10/22 11:09:49;;;;;;;44.47;28.30;;;;;;;13.27;100.00;99394.13;4875255;29;20540;-87
2022/10/22 11:12:22;;;;;;;58.83;37.60;;;;;;;13.33;100.00;99393.75;4877792;29;20033;-86
2022/10/22 11:14:53;;;;;;;54.47;35.55;;;;;;;13.43;100.00;99402.69;4904176;29;20036;-87
2022/10/22 11:17:22;;;;;;;46.22;30.70;;;;;;;13.41;100.00;99383.66;4915873;29;20059;-88
2022/10/22 11:19:57;;;;;;;44.85;32.28;;;;;;;13.47;100.00;99393.72;4915803;29;20034;-88
2022/10/22 11:22:34;;;;;;;40.50;26.77;;;;;;;13.50;100.00;99393.53;4915949;29;20132;-87